OCN45M EDDN-EDDK
Flight info
| Callsign | OCN45M |
|---|---|
| Flight time | 0h 42m |
| Altitude | 23000 |
| Route | ERETO1G/28 ERETO DCT LONLI/N0409F240 L984 ASKIK T840 GULKO |
| Aircraft | A320/M-SDE3FGHIRWY/LB1 |
Departure
| Time | 2026-04-20 16:11 |
|---|---|
| Airport | Nuremberg Airport (EDDN) |
Arrival
| Time | 2026-04-20 16:53 |
|---|---|
| Airport | Cologne Bonn Airport (EDDK) |
| Time | Latitude | Longitude | Altitude | Speed | Heading |
|---|---|---|---|---|---|
| 2026-04-20 15:39 | 49.49473 | 11.08166 | 1026 ft | 0 kts | 188° |
| 2026-04-20 15:55 | 49.49477 | 11.08167 | 1026 ft | 2 kts | 188° |
| 2026-04-20 15:55 | 49.49493 | 11.08170 | 1025 ft | 2 kts | 188° |
| 2026-04-20 15:55 | 49.49509 | 11.08173 | 1027 ft | 2 kts | 180° |
| 2026-04-20 15:55 | 49.49525 | 11.08173 | 1027 ft | 2 kts | 180° |
| 2026-04-20 15:56 | 49.49541 | 11.08173 | 1028 ft | 2 kts | 180° |
| 2026-04-20 15:56 | 49.49557 | 11.08174 | 1028 ft | 2 kts | 183° |
| 2026-04-20 15:56 | 49.49574 | 11.08176 | 1026 ft | 2 kts | 183° |
| 2026-04-20 15:56 | 49.49577 | 11.08176 | 1027 ft | 0 kts | 183° |
| 2026-04-20 16:03 | 49.49552 | 11.08194 | 1024 ft | 7 kts | 131° |
| 2026-04-20 16:03 | 49.49536 | 11.08279 | 1029 ft | 10 kts | 95° |
| 2026-04-20 16:04 | 49.49576 | 11.08350 | 1032 ft | 10 kts | 19° |
| 2026-04-20 16:04 | 49.49614 | 11.08431 | 1034 ft | 11 kts | 90° |
| 2026-04-20 16:04 | 49.49602 | 11.08565 | 1035 ft | 15 kts | 98° |
| 2026-04-20 16:04 | 49.49585 | 11.08738 | 1037 ft | 18 kts | 99° |
| 2026-04-20 16:05 | 49.49567 | 11.08932 | 1038 ft | 14 kts | 97° |
| 2026-04-20 16:05 | 49.49552 | 11.09070 | 1040 ft | 11 kts | 100° |
| 2026-04-20 16:05 | 49.49542 | 11.09171 | 1042 ft | 8 kts | 97° |
| 2026-04-20 16:05 | 49.49538 | 11.09226 | 1043 ft | 0 kts | 97° |
| 2026-04-20 16:06 | 49.49537 | 11.09232 | 1043 ft | 2 kts | 99° |
| 2026-04-20 16:06 | 49.49533 | 11.09266 | 1044 ft | 5 kts | 99° |
| 2026-04-20 16:06 | 49.49529 | 11.09306 | 1045 ft | 0 kts | 96° |
| 2026-04-20 16:08 | 49.49529 | 11.09311 | 1045 ft | 3 kts | 95° |
| 2026-04-20 16:08 | 49.49532 | 11.09349 | 1045 ft | 2 kts | 76° |
| 2026-04-20 16:08 | 49.49535 | 11.09362 | 1046 ft | 2 kts | 70° |
| 2026-04-20 16:09 | 49.49541 | 11.09382 | 1046 ft | 1 kts | 63° |
| 2026-04-20 16:09 | 49.49569 | 11.09445 | 1048 ft | 18 kts | 54° |
| 2026-04-20 16:09 | 49.49664 | 11.09571 | 1052 ft | 15 kts | 13° |
| 2026-04-20 16:09 | 49.49705 | 11.09484 | 1051 ft | 0 kts | 278° |
| 2026-04-20 16:10 | 49.49705 | 11.09479 | 1051 ft | 3 kts | 278° |
| 2026-04-20 16:10 | 49.49734 | 11.09182 | 1046 ft | 66 kts | 278° |
| 2026-04-20 16:10 | 49.49841 | 11.08121 | 1032 ft | 131 kts | 278° |
| 2026-04-20 16:11 | 49.50019 | 11.06497 | 1169 ft | 167 kts | 284° |
| 2026-04-20 16:11 | 49.50209 | 11.04724 | 1867 ft | 170 kts | 282° |
| 2026-04-20 16:11 | 49.50387 | 11.02880 | 2489 ft | 184 kts | 282° |
| 2026-04-20 16:11 | 49.50587 | 11.00803 | 2816 ft | 209 kts | 281° |
| 2026-04-20 16:12 | 49.50824 | 10.98448 | 3255 ft | 236 kts | 281° |
| 2026-04-20 16:12 | 49.51079 | 10.95866 | 3991 ft | 249 kts | 282° |
| 2026-04-20 16:12 | 49.51682 | 10.93413 | 4910 ft | 251 kts | 309° |
| 2026-04-20 16:12 | 49.53110 | 10.91899 | 5843 ft | 256 kts | 342° |
| 2026-04-20 16:13 | 49.54891 | 10.91590 | 6747 ft | 262 kts | 358° |
| 2026-04-20 16:13 | 49.56721 | 10.91776 | 7503 ft | 264 kts | 3° |
| 2026-04-20 16:13 | 49.58557 | 10.92107 | 8280 ft | 267 kts | 4° |
| 2026-04-20 16:13 | 49.60414 | 10.92423 | 9089 ft | 270 kts | 3° |
| 2026-04-20 16:14 | 49.62307 | 10.92644 | 9778 ft | 275 kts | 0° |
| 2026-04-20 16:14 | 49.64212 | 10.92763 | 10469 ft | 276 kts | 359° |
| 2026-04-20 16:14 | 49.66155 | 10.92839 | 11245 ft | 282 kts | 358° |
| 2026-04-20 16:14 | 49.68119 | 10.92949 | 11939 ft | 293 kts | 4° |
| 2026-04-20 16:15 | 49.70177 | 10.93722 | 12297 ft | 320 kts | 19° |
| 2026-04-20 16:15 | 49.72192 | 10.95478 | 12578 ft | 346 kts | 35° |
| 2026-04-20 16:15 | 49.74035 | 10.97974 | 13171 ft | 356 kts | 38° |
| 2026-04-20 16:15 | 49.75907 | 11.00519 | 13935 ft | 360 kts | 38° |
| 2026-04-20 16:16 | 49.77811 | 11.03064 | 14643 ft | 364 kts | 38° |
| 2026-04-20 16:16 | 49.79747 | 11.05621 | 15318 ft | 368 kts | 37° |
| 2026-04-20 16:16 | 49.81705 | 11.08205 | 16000 ft | 372 kts | 38° |
| 2026-04-20 16:16 | 49.83526 | 11.11091 | 16664 ft | 379 kts | 49° |
| 2026-04-20 16:17 | 49.84981 | 11.14483 | 17307 ft | 386 kts | 60° |
| 2026-04-20 16:17 | 49.86153 | 11.18247 | 17954 ft | 391 kts | 62° |
| 2026-04-20 16:17 | 49.87326 | 11.22068 | 18570 ft | 394 kts | 62° |
| 2026-04-20 16:17 | 49.88730 | 11.25706 | 19132 ft | 393 kts | 49° |
| 2026-04-20 16:18 | 49.90684 | 11.28642 | 19711 ft | 391 kts | 33° |
| 2026-04-20 16:18 | 49.93051 | 11.30663 | 20289 ft | 389 kts | 18° |
| 2026-04-20 16:18 | 49.95666 | 11.31640 | 20861 ft | 388 kts | 4° |
| 2026-04-20 16:18 | 49.98355 | 11.31520 | 21414 ft | 388 kts | 349° |
| 2026-04-20 16:19 | 50.00938 | 11.30293 | 21946 ft | 390 kts | 335° |
| 2026-04-20 16:19 | 50.03236 | 11.28026 | 22471 ft | 394 kts | 320° |
| 2026-04-20 16:19 | 50.05136 | 11.24941 | 22955 ft | 398 kts | 308° |
| 2026-04-20 16:19 | 50.06539 | 11.21282 | 23096 ft | 405 kts | 295° |
| 2026-04-20 16:20 | 50.07360 | 11.17019 | 23108 ft | 418 kts | 280° |
| 2026-04-20 16:20 | 50.07484 | 11.12476 | 23115 ft | 422 kts | 271° |
| 2026-04-20 16:20 | 50.07459 | 11.07905 | 23112 ft | 422 kts | 271° |
| 2026-04-20 16:20 | 50.07466 | 11.03339 | 23114 ft | 422 kts | 272° |
| 2026-04-20 16:21 | 50.07487 | 10.98777 | 23109 ft | 422 kts | 272° |
| 2026-04-20 16:21 | 50.07510 | 10.94218 | 23117 ft | 421 kts | 272° |
| 2026-04-20 16:21 | 50.07529 | 10.89662 | 23116 ft | 420 kts | 272° |
| 2026-04-20 16:21 | 50.07539 | 10.85180 | 23116 ft | 420 kts | 271° |
| 2026-04-20 16:22 | 50.07539 | 10.80636 | 23113 ft | 420 kts | 271° |
| 2026-04-20 16:22 | 50.07536 | 10.76092 | 23114 ft | 420 kts | 271° |
| 2026-04-20 16:22 | 50.07530 | 10.71552 | 23114 ft | 419 kts | 271° |
| 2026-04-20 16:22 | 50.07519 | 10.67023 | 23120 ft | 419 kts | 271° |
| 2026-04-20 16:23 | 50.07505 | 10.62480 | 23112 ft | 419 kts | 271° |
| 2026-04-20 16:23 | 50.07491 | 10.57949 | 23116 ft | 419 kts | 271° |
| 2026-04-20 16:23 | 50.07477 | 10.53421 | 23122 ft | 419 kts | 270° |
| 2026-04-20 16:23 | 50.07462 | 10.48945 | 23121 ft | 418 kts | 271° |
| 2026-04-20 16:24 | 50.07445 | 10.44417 | 23116 ft | 418 kts | 270° |
| 2026-04-20 16:24 | 50.07425 | 10.40104 | 23120 ft | 418 kts | 270° |
| 2026-04-20 16:24 | 50.07401 | 10.35577 | 23121 ft | 418 kts | 270° |
| 2026-04-20 16:24 | 50.07373 | 10.31055 | 23123 ft | 418 kts | 270° |
| 2026-04-20 16:25 | 50.07344 | 10.26540 | 23119 ft | 418 kts | 270° |
| 2026-04-20 16:25 | 50.07320 | 10.22018 | 23123 ft | 418 kts | 270° |
| 2026-04-20 16:25 | 50.07302 | 10.17496 | 23125 ft | 417 kts | 270° |
| 2026-04-20 16:25 | 50.07286 | 10.12979 | 23127 ft | 417 kts | 270° |
| 2026-04-20 16:26 | 50.07269 | 10.08462 | 23121 ft | 417 kts | 270° |
| 2026-04-20 16:26 | 50.07245 | 10.04012 | 23120 ft | 417 kts | 270° |
| 2026-04-20 16:26 | 50.07211 | 9.99499 | 23123 ft | 417 kts | 270° |
| 2026-04-20 16:26 | 50.07169 | 9.94984 | 23121 ft | 417 kts | 270° |
| 2026-04-20 16:27 | 50.07123 | 9.90475 | 23114 ft | 417 kts | 269° |
| 2026-04-20 16:27 | 50.07075 | 9.85961 | 23123 ft | 417 kts | 269° |
| 2026-04-20 16:27 | 50.07025 | 9.81459 | 23117 ft | 416 kts | 269° |
| 2026-04-20 16:27 | 50.06977 | 9.76953 | 23117 ft | 416 kts | 269° |
| 2026-04-20 16:28 | 50.06933 | 9.72447 | 23117 ft | 416 kts | 270° |
| 2026-04-20 16:28 | 50.06890 | 9.67945 | 23113 ft | 416 kts | 270° |
| 2026-04-20 16:28 | 50.06849 | 9.63451 | 23112 ft | 415 kts | 270° |
| 2026-04-20 16:28 | 50.06807 | 9.58961 | 23112 ft | 415 kts | 269° |
| 2026-04-20 16:29 | 50.06762 | 9.54462 | 23114 ft | 415 kts | 269° |
| 2026-04-20 16:29 | 50.06712 | 9.49975 | 23118 ft | 415 kts | 269° |
| 2026-04-20 16:29 | 50.06659 | 9.45498 | 23120 ft | 414 kts | 269° |
| 2026-04-20 16:29 | 50.06606 | 9.41067 | 23123 ft | 414 kts | 269° |
| 2026-04-20 16:30 | 50.06554 | 9.36598 | 23120 ft | 414 kts | 269° |
| 2026-04-20 16:30 | 50.06498 | 9.32122 | 23126 ft | 413 kts | 269° |
| 2026-04-20 16:30 | 50.06440 | 9.27643 | 23125 ft | 413 kts | 269° |
| 2026-04-20 16:30 | 50.06378 | 9.23182 | 23128 ft | 412 kts | 269° |
| 2026-04-20 16:31 | 50.06313 | 9.18733 | 23129 ft | 412 kts | 269° |
| 2026-04-20 16:31 | 50.06244 | 9.14273 | 23128 ft | 411 kts | 269° |
| 2026-04-20 16:31 | 50.06172 | 9.09826 | 23132 ft | 411 kts | 269° |
| 2026-04-20 16:31 | 50.06101 | 9.05444 | 23138 ft | 411 kts | 269° |
| 2026-04-20 16:32 | 50.06029 | 9.01000 | 23134 ft | 410 kts | 269° |
| 2026-04-20 16:32 | 50.05955 | 8.96568 | 23139 ft | 410 kts | 269° |
| 2026-04-20 16:32 | 50.05879 | 8.92114 | 23143 ft | 409 kts | 269° |
| 2026-04-20 16:32 | 50.05802 | 8.87701 | 23143 ft | 409 kts | 269° |
| 2026-04-20 16:33 | 50.05723 | 8.83290 | 23142 ft | 408 kts | 269° |
| 2026-04-20 16:33 | 50.05646 | 8.78883 | 23144 ft | 408 kts | 269° |
| 2026-04-20 16:33 | 50.05569 | 8.74600 | 23147 ft | 408 kts | 269° |
| 2026-04-20 16:33 | 50.05485 | 8.70060 | 23148 ft | 407 kts | 269° |
| 2026-04-20 16:34 | 50.05404 | 8.65685 | 23146 ft | 407 kts | 269° |
| 2026-04-20 16:34 | 50.05335 | 8.61267 | 23142 ft | 406 kts | 271° |
| 2026-04-20 16:34 | 50.05617 | 8.56907 | 23140 ft | 405 kts | 282° |
| 2026-04-20 16:34 | 50.06429 | 8.52731 | 23133 ft | 399 kts | 292° |
| 2026-04-20 16:35 | 50.07667 | 8.48942 | 22889 ft | 389 kts | 301° |
| 2026-04-20 16:35 | 50.09249 | 8.45515 | 21523 ft | 391 kts | 307° |
| 2026-04-20 16:35 | 50.10960 | 8.42171 | 20077 ft | 393 kts | 308° |
| 2026-04-20 16:35 | 50.12610 | 8.38979 | 19688 ft | 373 kts | 308° |
| 2026-04-20 16:36 | 50.14222 | 8.35859 | 19516 ft | 359 kts | 308° |
| 2026-04-20 16:36 | 50.15772 | 8.32845 | 19073 ft | 354 kts | 308° |
| 2026-04-20 16:36 | 50.17281 | 8.29899 | 18609 ft | 350 kts | 308° |
| 2026-04-20 16:36 | 50.18788 | 8.26943 | 18131 ft | 347 kts | 308° |
| 2026-04-20 16:37 | 50.20287 | 8.24001 | 17667 ft | 345 kts | 308° |
| 2026-04-20 16:37 | 50.21772 | 8.21077 | 17223 ft | 343 kts | 308° |
| 2026-04-20 16:37 | 50.23241 | 8.18173 | 16767 ft | 341 kts | 308° |
| 2026-04-20 16:37 | 50.24708 | 8.15269 | 16297 ft | 339 kts | 308° |
| 2026-04-20 16:38 | 50.26162 | 8.12384 | 15834 ft | 337 kts | 308° |
| 2026-04-20 16:38 | 50.27602 | 8.09524 | 15488 ft | 331 kts | 308° |
| 2026-04-20 16:38 | 50.29004 | 8.06744 | 15363 ft | 319 kts | 308° |
| 2026-04-20 16:38 | 50.30338 | 8.04100 | 15212 ft | 309 kts | 308° |
| 2026-04-20 16:39 | 50.31661 | 8.01476 | 14842 ft | 306 kts | 308° |
| 2026-04-20 16:39 | 50.32975 | 7.98866 | 14476 ft | 305 kts | 308° |
| 2026-04-20 16:39 | 50.34282 | 7.96269 | 14096 ft | 304 kts | 308° |
| 2026-04-20 16:39 | 50.35591 | 7.93665 | 13650 ft | 304 kts | 308° |
| 2026-04-20 16:40 | 50.36895 | 7.91061 | 13171 ft | 304 kts | 308° |
| 2026-04-20 16:40 | 50.38198 | 7.88460 | 12729 ft | 303 kts | 308° |
| 2026-04-20 16:40 | 50.39473 | 7.85911 | 12272 ft | 291 kts | 308° |
| 2026-04-20 16:40 | 50.40701 | 7.83453 | 11752 ft | 283 kts | 308° |
| 2026-04-20 16:41 | 50.41899 | 7.81049 | 11234 ft | 276 kts | 308° |
| 2026-04-20 16:41 | 50.43045 | 7.78747 | 10793 ft | 267 kts | 308° |
| 2026-04-20 16:41 | 50.44169 | 7.76488 | 10551 ft | 260 kts | 308° |
| 2026-04-20 16:41 | 50.45358 | 7.74341 | 10502 ft | 262 kts | 316° |
| 2026-04-20 16:42 | 50.46707 | 7.72424 | 10410 ft | 261 kts | 317° |
| 2026-04-20 16:42 | 50.48034 | 7.70543 | 10273 ft | 252 kts | 317° |
| 2026-04-20 16:42 | 50.49309 | 7.68730 | 10158 ft | 243 kts | 317° |
| 2026-04-20 16:42 | 50.50541 | 7.66973 | 9924 ft | 240 kts | 317° |
| 2026-04-20 16:43 | 50.51791 | 7.65183 | 9489 ft | 242 kts | 317° |
| 2026-04-20 16:43 | 50.53002 | 7.63447 | 9236 ft | 230 kts | 317° |
| 2026-04-20 16:43 | 50.54130 | 7.61831 | 9072 ft | 216 kts | 317° |
| 2026-04-20 16:43 | 50.55224 | 7.60264 | 8790 ft | 211 kts | 317° |
| 2026-04-20 16:44 | 50.56309 | 7.58710 | 8396 ft | 210 kts | 317° |
| 2026-04-20 16:44 | 50.57385 | 7.57166 | 7966 ft | 210 kts | 318° |
| 2026-04-20 16:44 | 50.58435 | 7.55561 | 7505 ft | 211 kts | 315° |
| 2026-04-20 16:44 | 50.59491 | 7.53947 | 7053 ft | 212 kts | 317° |
| 2026-04-20 16:45 | 50.60465 | 7.52534 | 6641 ft | 213 kts | 318° |
| 2026-04-20 16:45 | 50.61562 | 7.50967 | 6176 ft | 213 kts | 319° |
| 2026-04-20 16:45 | 50.62660 | 7.49401 | 5707 ft | 213 kts | 319° |
| 2026-04-20 16:45 | 50.63735 | 7.47868 | 5296 ft | 211 kts | 319° |
| 2026-04-20 16:46 | 50.64817 | 7.46323 | 4944 ft | 207 kts | 319° |
| 2026-04-20 16:46 | 50.65865 | 7.44824 | 4626 ft | 201 kts | 319° |
| 2026-04-20 16:46 | 50.66889 | 7.43361 | 4310 ft | 196 kts | 319° |
| 2026-04-20 16:46 | 50.67874 | 7.41951 | 4028 ft | 185 kts | 319° |
| 2026-04-20 16:47 | 50.68801 | 7.40625 | 3706 ft | 176 kts | 320° |
| 2026-04-20 16:47 | 50.69698 | 7.39340 | 3500 ft | 173 kts | 320° |
| 2026-04-20 16:47 | 50.70588 | 7.38065 | 3284 ft | 172 kts | 320° |
| 2026-04-20 16:47 | 50.71450 | 7.36829 | 3100 ft | 159 kts | 320° |
| 2026-04-20 16:48 | 50.72252 | 7.35678 | 3013 ft | 154 kts | 320° |
| 2026-04-20 16:48 | 50.73026 | 7.34568 | 3004 ft | 151 kts | 320° |
| 2026-04-20 16:48 | 50.73801 | 7.33456 | 3002 ft | 147 kts | 320° |
| 2026-04-20 16:48 | 50.74523 | 7.32417 | 3000 ft | 136 kts | 320° |
| 2026-04-20 16:49 | 50.75213 | 7.31427 | 2974 ft | 133 kts | 320° |
| 2026-04-20 16:49 | 50.75889 | 7.30456 | 2860 ft | 131 kts | 320° |
| 2026-04-20 16:49 | 50.76563 | 7.29487 | 2719 ft | 130 kts | 320° |
| 2026-04-20 16:49 | 50.77231 | 7.28526 | 2555 ft | 130 kts | 320° |
| 2026-04-20 16:50 | 50.77896 | 7.27565 | 2370 ft | 130 kts | 319° |
| 2026-04-20 16:50 | 50.78557 | 7.26599 | 2154 ft | 129 kts | 320° |
| 2026-04-20 16:50 | 50.79225 | 7.25656 | 1960 ft | 129 kts | 321° |
| 2026-04-20 16:50 | 50.79874 | 7.24700 | 1781 ft | 129 kts | 318° |
| 2026-04-20 16:51 | 50.80536 | 7.23749 | 1635 ft | 129 kts | 319° |
| 2026-04-20 16:51 | 50.81201 | 7.22791 | 1477 ft | 129 kts | 320° |
| 2026-04-20 16:51 | 50.81873 | 7.21845 | 1302 ft | 131 kts | 319° |
| 2026-04-20 16:51 | 50.82535 | 7.20856 | 1124 ft | 130 kts | 320° |
| 2026-04-20 16:52 | 50.83213 | 7.19907 | 929 ft | 129 kts | 320° |
| 2026-04-20 16:52 | 50.83874 | 7.18945 | 725 ft | 129 kts | 321° |
| 2026-04-20 16:52 | 50.84539 | 7.17985 | 594 ft | 131 kts | 319° |
| 2026-04-20 16:52 | 50.85209 | 7.17012 | 423 ft | 130 kts | 321° |
| 2026-04-20 16:53 | 50.85867 | 7.16068 | 319 ft | 124 kts | 322° |
| 2026-04-20 16:53 | 50.86419 | 7.15276 | 284 ft | 84 kts | 317° |
| 2026-04-20 16:53 | 50.86726 | 7.14835 | 269 ft | 35 kts | 317° |
| 2026-04-20 16:53 | 50.86794 | 7.14717 | 266 ft | 15 kts | 309° |
| 2026-04-20 16:54 | 50.86876 | 7.14436 | 260 ft | 32 kts | 281° |
| 2026-04-20 16:54 | 50.86891 | 7.14300 | 257 ft | 0 kts | 279° |
| 2026-04-20 16:55 | 50.86893 | 7.14276 | 257 ft | 9 kts | 278° |
| 2026-04-20 16:56 | 50.86914 | 7.14083 | 255 ft | 24 kts | 279° |
| 2026-04-20 16:56 | 50.86967 | 7.13861 | 246 ft | 23 kts | 315° |
| 2026-04-20 16:56 | 50.87098 | 7.13671 | 240 ft | 27 kts | 318° |
| 2026-04-20 16:56 | 50.87246 | 7.13454 | 234 ft | 30 kts | 318° |
| 2026-04-20 16:57 | 50.87378 | 7.13404 | 234 ft | 19 kts | 340° |
| 2026-04-20 16:57 | 50.87483 | 7.13268 | 233 ft | 21 kts | 317° |
| 2026-04-20 16:57 | 50.87594 | 7.13108 | 233 ft | 23 kts | 318° |
| 2026-04-20 16:57 | 50.87713 | 7.12934 | 233 ft | 24 kts | 316° |
| 2026-04-20 16:58 | 50.87786 | 7.12781 | 232 ft | 14 kts | 273° |
| 2026-04-20 16:58 | 50.87812 | 7.12642 | 232 ft | 13 kts | 320° |
| 2026-04-20 16:58 | 50.87904 | 7.12620 | 232 ft | 15 kts | 15° |
| 2026-04-20 16:58 | 50.87982 | 7.12641 | 232 ft | 12 kts | 342° |
| 2026-04-20 16:59 | 50.88012 | 7.12608 | 232 ft | 0 kts | 318° |
| 2026-04-20 16:59 | 50.88017 | 7.12600 | 232 ft | 6 kts | 317° |
| 2026-04-20 16:59 | 50.88082 | 7.12507 | 232 ft | 14 kts | 318° |
| 2026-04-20 16:59 | 50.88150 | 7.12378 | 232 ft | 16 kts | 288° |
| 2026-04-20 17:00 | 50.88210 | 7.12234 | 232 ft | 6 kts | 33° |
| 2026-04-20 17:00 | 50.88222 | 7.12246 | 235 ft | 0 kts | 34° |
| 2026-04-20 17:00 | 50.88224 | 7.12248 | 235 ft | 0 kts | 34° |